createdAt,value
2018-02-24T07:30:50.568Z,66.70
2018-02-24T07:33:17.448Z,67.30
2018-02-24T07:35:44.281Z,66.20
2018-02-24T07:38:12.369Z,65.70
2018-02-24T07:40:40.383Z,65.20
2018-02-24T07:43:07.041Z,65.50
2018-02-24T07:45:33.457Z,65.00
2018-02-24T07:48:01.832Z,64.70
2018-02-24T07:50:28.733Z,64.20
2018-02-24T07:52:55.191Z,63.90
2018-02-24T07:55:21.736Z,64.30
2018-02-24T07:57:50.472Z,65.00
2018-02-24T08:00:17.021Z,65.00
2018-02-24T08:02:44.404Z,65.10
2018-02-24T08:05:11.281Z,64.40
2018-02-24T08:07:37.797Z,64.90
2018-02-24T08:10:04.687Z,65.10
2018-02-24T08:12:32.168Z,64.90
2018-02-24T08:14:58.955Z,65.00
2018-02-24T08:17:27.716Z,64.80
2018-02-24T08:19:54.763Z,63.80
2018-02-24T08:22:21.352Z,64.10
2018-02-24T08:24:49.370Z,63.80
2018-02-24T08:27:15.924Z,63.60
2018-02-24T08:29:43.858Z,63.90
2018-02-24T08:32:10.835Z,64.20
2018-02-24T08:34:37.449Z,64.10
2018-02-24T08:37:04.621Z,63.70
2018-02-24T08:39:34.781Z,64.00
2018-02-24T08:42:05.271Z,63.60
2018-02-24T08:44:31.808Z,62.40
2018-02-24T08:46:58.383Z,62.00
2018-02-24T08:49:27.018Z,62.00
2018-02-24T08:51:55.086Z,61.90
2018-02-24T08:54:22.234Z,62.80
2018-02-24T08:56:48.791Z,61.80
2018-02-24T08:59:17.593Z,61.70
2018-02-24T09:01:44.006Z,62.20
2018-02-24T09:04:12.070Z,62.30
2018-02-24T09:06:38.600Z,62.20
2018-02-24T09:09:05.208Z,62.40
2018-02-24T09:11:31.786Z,62.20
2018-02-24T09:13:58.918Z,61.90
2018-02-24T09:16:25.422Z,61.60
2018-02-24T09:18:52.202Z,61.90
2018-02-24T09:21:18.738Z,61.60
2018-02-24T09:23:46.256Z,62.10
2018-02-24T09:26:12.783Z,61.40
2018-02-24T09:28:41.413Z,61.10
2018-02-24T09:31:08.317Z,61.80
2018-02-24T09:33:38.465Z,61.60
2018-02-24T09:36:05.053Z,61.90
2018-02-24T09:38:33.699Z,61.70
2018-02-24T09:41:00.262Z,61.30
2018-02-24T09:43:27.798Z,61.00
2018-02-24T09:45:54.867Z,61.00
2018-02-24T09:48:21.749Z,61.30
2018-02-24T09:50:48.890Z,61.90
2018-02-24T09:53:15.429Z,62.10
2018-02-24T09:55:41.909Z,61.40
2018-02-24T09:58:09.400Z,62.00
2018-02-24T10:00:40.351Z,61.70
2018-02-24T10:03:07.342Z,62.10
2018-02-24T10:05:34.173Z,62.10
2018-02-24T10:08:01.328Z,62.10
2018-02-24T10:10:28.174Z,61.40
2018-02-24T10:12:55.117Z,60.90
2018-02-24T10:15:23.108Z,60.90
2018-02-24T10:17:49.986Z,60.50
2018-02-24T10:20:16.841Z,60.40
2018-02-24T10:22:44.580Z,60.20
2018-02-24T10:25:11.472Z,60.30
2018-02-24T10:27:39.463Z,60.90
2018-02-24T10:30:06.284Z,60.60
2018-02-24T10:32:34.369Z,60.90
2018-02-24T10:35:04.269Z,60.80
2018-02-24T10:37:30.860Z,61.10
2018-02-24T10:39:59.884Z,60.90
2018-02-24T10:42:27.748Z,60.50
2018-02-24T10:44:54.824Z,60.20
2018-02-24T10:47:21.264Z,60.20
2018-02-24T10:49:49.391Z,60.20
2018-02-24T10:52:15.867Z,60.70
2018-02-24T10:54:42.766Z,60.60
2018-02-24T10:57:09.625Z,60.50
2018-02-24T10:59:36.182Z,60.60
2018-02-24T11:02:03.900Z,60.50
2018-02-24T11:04:32.554Z,60.60
2018-02-24T11:06:59.073Z,61.00
2018-02-24T11:09:26.224Z,61.20
2018-02-24T11:11:53.059Z,61.00
2018-02-24T11:14:19.979Z,61.10
2018-02-24T11:16:47.116Z,61.30
2018-02-24T11:19:13.665Z,60.70
2018-02-24T11:21:42.283Z,60.90
2018-02-24T11:26:39.973Z,61.20
2018-02-24T11:29:06.780Z,61.30
2018-02-24T11:31:33.368Z,61.50
2018-02-24T11:34:00.233Z,61.30
2018-02-24T11:36:27.644Z,60.80
2018-02-24T11:38:54.224Z,60.90
2018-02-24T11:41:21.657Z,60.80
2018-02-24T11:43:48.507Z,61.30
2018-02-24T11:46:15.952Z,61.50
2018-02-24T11:48:42.765Z,60.70
2018-02-24T11:51:10.949Z,61.10
2018-02-24T11:53:38.616Z,61.10
2018-02-24T11:56:06.051Z,61.70
2018-02-24T11:58:32.680Z,61.70
2018-02-24T12:00:59.806Z,62.70
2018-02-24T12:03:26.409Z,62.80
2018-02-24T12:05:54.113Z,63.20
2018-02-24T12:08:20.560Z,63.30
2018-02-24T12:10:47.127Z,62.80
2018-02-24T12:13:14.138Z,62.70
2018-02-24T12:15:40.949Z,62.50
2018-02-24T12:18:11.069Z,62.70
2018-02-24T12:20:37.601Z,62.50
2018-02-24T12:23:04.461Z,62.30
2018-02-24T12:28:00.888Z,62.20
2018-02-24T12:30:28.916Z,62.20
2018-02-24T12:32:55.436Z,62.30
2018-02-24T12:37:50.729Z,62.00
2018-02-24T12:40:18.144Z,62.10
2018-02-24T12:42:44.662Z,62.40
2018-02-24T12:45:12.165Z,62.30
2018-02-24T12:47:40.824Z,62.70
2018-02-24T12:50:07.657Z,62.60
2018-02-24T12:52:34.303Z,62.70
2018-02-24T12:57:29.389Z,62.90
2018-02-24T12:59:56.044Z,63.30
2018-02-24T13:02:23.184Z,63.20
2018-02-24T13:04:49.690Z,63.40
2018-02-24T13:07:17.381Z,63.40
2018-02-24T13:09:45.440Z,63.30
2018-02-24T13:12:12.048Z,62.80
2018-02-24T13:14:39.817Z,63.20
2018-02-24T13:17:06.347Z,63.40
2018-02-24T13:19:34.517Z,63.80
2018-02-24T13:22:01.877Z,63.70
2018-02-24T13:24:28.275Z,63.70
2018-02-24T13:26:54.949Z,63.70
2018-02-24T13:29:22.392Z,63.20
2018-02-24T13:31:48.921Z,63.20
2018-02-24T13:34:15.337Z,63.00
2018-02-24T13:36:41.993Z,63.40
2018-02-24T13:39:08.523Z,63.20
2018-02-24T13:41:35.418Z,63.80
2018-02-24T13:44:02.285Z,63.90
2018-02-24T13:46:29.352Z,63.80
2018-02-24T13:48:58.033Z,63.60
2018-02-24T13:51:24.560Z,63.90
2018-02-24T13:53:51.116Z,63.70
2018-02-24T13:56:17.900Z,63.80
2018-02-24T13:58:44.483Z,64.00
2018-02-24T14:01:11.004Z,63.70
2018-02-24T14:03:37.579Z,63.80
2018-02-24T14:06:04.166Z,64.00
2018-02-24T14:08:30.652Z,64.20
2018-02-24T14:10:58.354Z,64.10
2018-02-24T14:13:24.912Z,64.20
2018-02-24T14:15:51.493Z,64.70
2018-02-24T14:18:18.632Z,65.50
2018-02-24T14:20:45.154Z,66.00
2018-02-24T14:23:11.971Z,65.90
2018-02-24T14:25:41.903Z,66.40
2018-02-24T14:28:08.704Z,66.90
2018-02-24T14:30:35.289Z,67.30
2018-02-24T14:33:02.705Z,67.50
2018-02-24T14:35:30.468Z,67.70
2018-02-24T14:37:57.020Z,67.90
2018-02-24T14:40:23.901Z,67.90
2018-02-24T14:42:50.805Z,68.20
2018-02-24T14:45:17.944Z,68.40
2018-02-24T14:47:45.444Z,68.80
2018-02-24T14:52:43.296Z,70.00
2018-02-24T14:55:10.808Z,70.70
2018-02-24T14:57:42.874Z,70.90
2018-02-24T15:00:10.017Z,70.80
2018-02-24T15:02:36.478Z,71.30
2018-02-24T15:05:03.044Z,71.70
2018-02-24T15:07:29.640Z,72.20
2018-02-24T15:09:56.704Z,72.70
2018-02-24T15:12:23.301Z,72.80
2018-02-24T15:14:49.884Z,72.90
2018-02-24T15:17:17.571Z,73.00
2018-02-24T15:19:49.149Z,73.50
2018-02-24T15:22:17.113Z,73.70
2018-02-24T15:24:43.701Z,73.80
2018-02-24T15:27:10.833Z,73.80
2018-02-24T15:29:37.968Z,73.90
2018-02-24T15:32:04.490Z,74.00
2018-02-24T15:34:30.976Z,74.00
2018-02-24T15:36:58.788Z,73.90
2018-02-24T15:39:26.535Z,73.60
2018-02-24T15:41:54.676Z,73.50
2018-02-24T15:44:24.516Z,73.70
2018-02-24T15:46:51.012Z,73.70
2018-02-24T15:49:19.696Z,74.00
2018-02-24T15:51:46.562Z,74.00
2018-02-24T15:54:13.077Z,74.40
2018-02-24T15:56:41.311Z,74.70
2018-02-24T15:59:08.579Z,74.60
2018-02-24T16:01:39.513Z,75.00
2018-02-24T16:04:05.920Z,74.70
2018-02-24T16:06:34.044Z,74.50
2018-02-24T16:09:00.685Z,74.80
2018-02-24T16:11:27.725Z,74.60
2018-02-24T16:13:54.097Z,74.50
2018-02-24T16:16:21.221Z,74.70
2018-02-24T16:18:47.666Z,74.30
2018-02-24T16:21:14.325Z,74.40
2018-02-24T16:23:42.586Z,74.40
2018-02-24T16:26:09.107Z,74.10
2018-02-24T16:28:36.572Z,74.40
2018-02-24T16:31:03.185Z,74.50
2018-02-24T16:35:59.596Z,74.30
2018-02-24T16:38:26.070Z,74.30
2018-02-24T16:40:53.242Z,74.40
2018-02-24T16:43:19.822Z,74.00
2018-02-24T16:45:47.287Z,73.60
2018-02-24T16:48:15.367Z,73.70
2018-02-24T16:50:43.029Z,73.60
2018-02-24T16:53:09.788Z,73.70
2018-02-24T16:55:36.231Z,73.60
2018-02-24T16:58:02.742Z,73.80
2018-02-24T17:00:29.251Z,73.90
2018-02-24T17:02:56.084Z,73.70
2018-02-24T17:05:24.728Z,73.60
2018-02-24T17:07:51.247Z,73.20
2018-02-24T17:10:18.143Z,73.00
2018-02-24T17:12:44.928Z,72.70
2018-02-24T17:15:11.784Z,72.50
2018-02-24T17:17:38.303Z,72.30
2018-02-24T17:20:04.845Z,72.70
2018-02-24T17:22:31.731Z,73.00
2018-02-24T17:24:58.144Z,73.40
2018-02-24T17:27:24.791Z,73.60
2018-02-24T17:29:51.692Z,73.80
2018-02-24T17:32:19.364Z,73.70
2018-02-24T17:34:47.569Z,73.70
2018-02-24T17:37:14.312Z,74.00
2018-02-24T17:39:41.120Z,74.20
2018-02-24T17:42:09.241Z,74.60
2018-02-24T17:44:37.262Z,74.30
2018-02-24T17:47:03.833Z,74.50
2018-02-24T17:49:30.398Z,74.50
2018-02-24T17:54:28.632Z,75.10
2018-02-24T17:56:56.695Z,75.20
2018-02-24T17:59:23.333Z,75.20
2018-02-24T18:01:53.475Z,75.40
2018-02-24T18:04:20.325Z,75.30
2018-02-24T18:06:46.885Z,75.90
2018-02-24T18:09:14.662Z,75.90
2018-02-24T18:11:41.550Z,76.00
2018-02-24T18:14:08.680Z,76.40
2018-02-24T18:16:36.089Z,76.40
2018-02-24T18:19:02.881Z,76.80
2018-02-24T18:21:30.332Z,76.50
2018-02-24T18:23:59.074Z,76.90
2018-02-24T18:29:15.488Z,76.70
2018-02-24T18:31:42.046Z,76.60
2018-02-24T18:34:08.813Z,76.60
2018-02-24T18:36:35.671Z,76.50
2018-02-24T18:39:03.798Z,76.60
2018-02-24T18:41:31.236Z,76.60
2018-02-24T18:43:58.999Z,76.20
2018-02-24T18:46:25.905Z,76.00
2018-02-24T18:48:52.333Z,75.90
2018-02-24T18:51:18.860Z,75.80
2018-02-24T18:53:46.076Z,76.20
2018-02-24T18:56:12.554Z,76.00
2018-02-24T18:58:39.383Z,76.10
2018-02-24T19:01:05.992Z,76.20
2018-02-24T19:03:33.680Z,75.90
2018-02-24T19:06:00.300Z,76.00
2018-02-24T19:08:28.068Z,76.30
2018-02-24T19:10:56.099Z,76.50
2018-02-24T19:13:22.978Z,76.60
2018-02-24T19:15:50.021Z,76.70
2018-02-24T19:18:16.646Z,76.60
2018-02-24T19:20:43.216Z,76.60
2018-02-24T19:23:09.648Z,76.80
2018-02-24T19:25:39.676Z,77.40
2018-02-24T19:28:06.200Z,77.30
2018-02-24T19:30:32.724Z,77.40
2018-02-24T19:32:59.229Z,77.20
2018-02-24T19:35:29.768Z,77.20
2018-02-24T19:37:56.316Z,77.10
2018-02-24T19:40:22.836Z,77.60
2018-02-24T19:42:49.368Z,77.80
2018-02-24T19:45:15.900Z,77.20
2018-02-24T19:47:42.699Z,77.20
2018-02-24T19:50:09.237Z,77.20
2018-02-24T19:52:35.789Z,77.30
2018-02-24T19:55:02.406Z,77.00
2018-02-24T19:57:29.452Z,77.50
2018-02-24T19:59:56.037Z,77.10
2018-02-24T20:02:22.528Z,77.10
2018-02-24T20:04:49.068Z,76.80
2018-02-24T20:07:16.010Z,77.60
2018-02-24T20:09:42.485Z,77.40
2018-02-24T20:12:09.960Z,77.60
2018-02-24T20:14:37.660Z,77.60
2018-02-24T20:17:04.492Z,77.30
2018-02-24T20:19:33.582Z,77.20
2018-02-24T20:22:01.453Z,77.40
2018-02-24T20:24:28.421Z,77.30
2018-02-24T20:26:55.322Z,77.60
2018-02-24T20:29:23.072Z,78.40
2018-02-24T20:31:51.192Z,78.40
2018-02-24T20:34:17.665Z,78.40
2018-02-24T20:36:44.416Z,78.50
2018-02-24T20:39:11.004Z,78.00
2018-02-24T20:41:37.575Z,78.30
2018-02-24T20:44:04.517Z,78.70
2018-02-24T20:46:31.687Z,79.00
2018-02-24T20:48:59.132Z,79.00
2018-02-24T20:51:26.320Z,78.90
2018-02-24T20:53:53.383Z,79.10
2018-02-24T20:56:21.254Z,79.40
2018-02-24T20:58:50.436Z,79.50
2018-02-24T21:03:45.721Z,78.80
2018-02-24T21:06:13.177Z,78.80
2018-02-24T21:08:40.245Z,79.30
2018-02-24T21:11:06.732Z,78.90
2018-02-24T21:13:33.601Z,78.70
2018-02-24T21:16:00.120Z,78.60
2018-02-24T21:18:26.680Z,78.80
2018-02-24T21:20:53.286Z,78.10
2018-02-24T21:23:20.032Z,78.40
2018-02-24T21:25:46.608Z,78.20
2018-02-24T21:28:14.347Z,78.30
2018-02-24T21:30:40.844Z,78.40
2018-02-24T21:33:07.435Z,78.00
2018-02-24T21:35:34.606Z,78.00
2018-02-24T21:38:02.269Z,77.70
2018-02-24T21:40:29.109Z,78.20
2018-02-24T21:42:56.293Z,77.80
2018-02-24T21:45:23.226Z,77.70
2018-02-24T21:47:50.252Z,78.10
2018-02-24T21:50:17.100Z,78.20
2018-02-24T21:52:43.929Z,78.40
2018-02-24T21:55:10.464Z,77.90
2018-02-24T21:57:37.104Z,77.50
2018-02-24T22:00:04.795Z,77.10
2018-02-24T22:02:35.516Z,77.80
2018-02-24T22:05:21.576Z,77.90
2018-02-24T22:07:48.747Z,76.80
2018-02-24T22:10:15.559Z,76.90
2018-02-24T22:12:42.089Z,77.20
2018-02-24T22:15:08.540Z,76.70
2018-02-24T22:17:35.387Z,76.80
2018-02-24T22:20:02.337Z,76.50
2018-02-24T22:22:29.539Z,77.40
2018-02-24T22:24:56.578Z,77.60
2018-02-24T22:27:23.421Z,76.90
2018-02-24T22:29:49.976Z,77.70
2018-02-24T22:32:16.496Z,77.30
2018-02-24T22:34:43.952Z,77.40
2018-02-24T22:37:10.505Z,77.00
2018-02-24T22:39:37.307Z,76.30
2018-02-24T22:42:04.212Z,76.00
2018-02-24T22:44:30.683Z,76.40
2018-02-24T22:46:57.556Z,76.60
2018-02-24T22:49:24.321Z,76.70
2018-02-24T22:51:50.958Z,76.10
2018-02-24T22:54:17.401Z,76.00
2018-02-24T22:56:43.976Z,76.40
2018-02-24T22:59:10.784Z,76.60
2018-02-24T23:01:37.624Z,76.80
2018-02-24T23:04:04.191Z,76.70
2018-02-24T23:06:31.719Z,76.20
2018-02-24T23:14:03.253Z,75.40
2018-02-24T23:19:05.852Z,74.80
2018-02-24T23:27:24.545Z,75.90
2018-02-24T23:29:50.922Z,76.30
2018-02-24T23:32:18.424Z,75.70
2018-02-24T23:34:44.876Z,75.80
2018-02-24T23:37:11.472Z,75.40
2018-02-24T23:39:38.978Z,75.70
2018-02-24T23:42:07.755Z,74.70
2018-02-24T23:44:34.748Z,75.20
2018-02-24T23:47:01.675Z,75.20
2018-02-24T23:49:29.112Z,75.00
2018-02-24T23:51:55.584Z,75.00
2018-02-24T23:54:22.152Z,75.20
2018-02-24T23:56:48.769Z,75.20
2018-02-24T23:59:16.716Z,75.50
